sensor_id;sensor_type;location;lat;lon;timestamp;temperature;humidity
71978;DHT22;59848;48.158;11.512;2022-09-09T00:03:59;16.70;72.90
71978;DHT22;59848;48.158;11.512;2022-09-09T00:06:30;16.70;72.50
71978;DHT22;59848;48.158;11.512;2022-09-09T00:09:10;16.70;72.60
71978;DHT22;59848;48.158;11.512;2022-09-09T00:11:48;16.80;72.70
71978;DHT22;59848;48.158;11.512;2022-09-09T00:17:09;16.80;72.80
71978;DHT22;59848;48.158;11.512;2022-09-09T00:19:45;16.80;72.60
71978;DHT22;59848;48.158;11.512;2022-09-09T00:22:21;16.70;72.60
71978;DHT22;59848;48.158;11.512;2022-09-09T00:24:55;16.70;72.90
71978;DHT22;59848;48.158;11.512;2022-09-09T00:27:45;16.70;73.20
71978;DHT22;59848;48.158;11.512;2022-09-09T00:30:32;16.70;73.50
71978;DHT22;59848;48.158;11.512;2022-09-09T00:33:03;16.70;73.40
71978;DHT22;59848;48.158;11.512;2022-09-09T00:35:36;16.60;73.80
71978;DHT22;59848;48.158;11.512;2022-09-09T00:38:17;16.70;73.70
71978;DHT22;59848;48.158;11.512;2022-09-09T00:40:58;16.60;73.60
71978;DHT22;59848;48.158;11.512;2022-09-09T00:43:38;16.60;73.50
71978;DHT22;59848;48.158;11.512;2022-09-09T00:54:40;16.30;75.00
71978;DHT22;59848;48.158;11.512;2022-09-09T01:02:39;16.00;76.10
71978;DHT22;59848;48.158;11.512;2022-09-09T01:05:15;15.80;76.40
71978;DHT22;59848;48.158;11.512;2022-09-09T01:07:47;15.80;76.80
71978;DHT22;59848;48.158;11.512;2022-09-09T01:10:47;15.70;77.10
71978;DHT22;59848;48.158;11.512;2022-09-09T01:13:30;15.70;77.50
71978;DHT22;59848;48.158;11.512;2022-09-09T01:15:58;15.80;77.40
71978;DHT22;59848;48.158;11.512;2022-09-09T01:18:28;15.90;77.30
71978;DHT22;59848;48.158;11.512;2022-09-09T01:21:09;16.00;76.70
71978;DHT22;59848;48.158;11.512;2022-09-09T01:28:50;16.10;76.00
71978;DHT22;59848;48.158;11.512;2022-09-09T01:31:27;16.10;75.90
71978;DHT22;59848;48.158;11.512;2022-09-09T01:33:53;16.20;75.80
71978;DHT22;59848;48.158;11.512;2022-09-09T01:36:32;16.20;75.70
71978;DHT22;59848;48.158;11.512;2022-09-09T01:38:59;16.20;75.30
71978;DHT22;59848;48.158;11.512;2022-09-09T01:41:24;16.20;75.30
71978;DHT22;59848;48.158;11.512;2022-09-09T01:43:50;16.10;75.30
71978;DHT22;59848;48.158;11.512;2022-09-09T01:46:17;16.10;75.20
71978;DHT22;59848;48.158;11.512;2022-09-09T01:48:45;16.10;75.40
71978;DHT22;59848;48.158;11.512;2022-09-09T01:51:10;16.00;75.30
71978;DHT22;59848;48.158;11.512;2022-09-09T01:53:37;16.00;75.80
71978;DHT22;59848;48.158;11.512;2022-09-09T02:06:57;15.80;76.60
71978;DHT22;59848;48.158;11.512;2022-09-09T02:09:26;15.80;76.40
71978;DHT22;59848;48.158;11.512;2022-09-09T02:12:05;15.70;76.50
71978;DHT22;59848;48.158;11.512;2022-09-09T02:14:37;15.70;76.80
71978;DHT22;59848;48.158;11.512;2022-09-09T02:17:11;15.70;77.10
71978;DHT22;59848;48.158;11.512;2022-09-09T02:19:46;15.60;77.30
71978;DHT22;59848;48.158;11.512;2022-09-09T02:22:18;15.60;77.20
71978;DHT22;59848;48.158;11.512;2022-09-09T02:24:45;15.60;77.20
71978;DHT22;59848;48.158;11.512;2022-09-09T02:27:12;15.60;77.30
71978;DHT22;59848;48.158;11.512;2022-09-09T02:29:41;15.60;77.20
71978;DHT22;59848;48.158;11.512;2022-09-09T02:32:16;15.60;77.30
71978;DHT22;59848;48.158;11.512;2022-09-09T02:34:47;15.60;77.20
71978;DHT22;59848;48.158;11.512;2022-09-09T02:37:17;15.60;77.50
71978;DHT22;59848;48.158;11.512;2022-09-09T02:39:44;15.70;77.30
71978;DHT22;59848;48.158;11.512;2022-09-09T02:42:09;15.60;77.40
71978;DHT22;59848;48.158;11.512;2022-09-09T02:44:35;15.60;77.40
71978;DHT22;59848;48.158;11.512;2022-09-09T02:50:17;15.50;77.30
71978;DHT22;59848;48.158;11.512;2022-09-09T02:53:09;15.50;77.50
71978;DHT22;59848;48.158;11.512;2022-09-09T02:55:50;15.50;77.70
71978;DHT22;59848;48.158;11.512;2022-09-09T02:58:18;15.50;78.00
71978;DHT22;59848;48.158;11.512;2022-09-09T03:00:50;15.50;77.80
71978;DHT22;59848;48.158;11.512;2022-09-09T03:03:16;15.50;78.10
71978;DHT22;59848;48.158;11.512;2022-09-09T03:05:43;15.50;78.20
71978;DHT22;59848;48.158;11.512;2022-09-09T03:08:10;15.50;78.20
71978;DHT22;59848;48.158;11.512;2022-09-09T03:10:36;15.50;78.30
71978;DHT22;59848;48.158;11.512;2022-09-09T03:13:02;15.50;78.40
71978;DHT22;59848;48.158;11.512;2022-09-09T03:15:29;15.50;78.50
71978;DHT22;59848;48.158;11.512;2022-09-09T03:17:57;15.50;78.50
71978;DHT22;59848;48.158;11.512;2022-09-09T03:20:24;15.50;78.50
71978;DHT22;59848;48.158;11.512;2022-09-09T03:22:54;15.50;78.50
71978;DHT22;59848;48.158;11.512;2022-09-09T03:25:20;15.50;78.60
71978;DHT22;59848;48.158;11.512;2022-09-09T03:27:46;15.50;78.50
71978;DHT22;59848;48.158;11.512;2022-09-09T03:30:12;15.40;78.70
71978;DHT22;59848;48.158;11.512;2022-09-09T03:32:37;15.40;79.00
71978;DHT22;59848;48.158;11.512;2022-09-09T03:35:03;15.40;79.00
71978;DHT22;59848;48.158;11.512;2022-09-09T03:37:29;15.40;79.10
71978;DHT22;59848;48.158;11.512;2022-09-09T03:39:54;15.40;79.10
71978;DHT22;59848;48.158;11.512;2022-09-09T03:42:20;15.50;79.20
71978;DHT22;59848;48.158;11.512;2022-09-09T03:44:46;15.40;79.20
71978;DHT22;59848;48.158;11.512;2022-09-09T03:47:18;15.50;78.90
71978;DHT22;59848;48.158;11.512;2022-09-09T03:49:45;15.60;79.00
71978;DHT22;59848;48.158;11.512;2022-09-09T03:52:11;15.60;79.30
71978;DHT22;59848;48.158;11.512;2022-09-09T03:54:37;15.70;78.90
71978;DHT22;59848;48.158;11.512;2022-09-09T03:57:03;15.70;78.70
71978;DHT22;59848;48.158;11.512;2022-09-09T03:59:29;15.80;78.50
71978;DHT22;59848;48.158;11.512;2022-09-09T04:01:59;15.80;78.40
71978;DHT22;59848;48.158;11.512;2022-09-09T04:04:25;16.00;78.10
71978;DHT22;59848;48.158;11.512;2022-09-09T04:06:52;16.00;77.90
71978;DHT22;59848;48.158;11.512;2022-09-09T04:09:17;16.10;77.60
71978;DHT22;59848;48.158;11.512;2022-09-09T04:11:43;16.10;77.50
71978;DHT22;59848;48.158;11.512;2022-09-09T04:14:09;16.10;77.50
71978;DHT22;59848;48.158;11.512;2022-09-09T04:16:34;16.10;77.30
71978;DHT22;59848;48.158;11.512;2022-09-09T04:19:02;16.20;77.30
71978;DHT22;59848;48.158;11.512;2022-09-09T04:21:30;16.20;76.90
71978;DHT22;59848;48.158;11.512;2022-09-09T04:23:55;16.20;76.80
71978;DHT22;59848;48.158;11.512;2022-09-09T04:26:21;16.20;76.80
71978;DHT22;59848;48.158;11.512;2022-09-09T04:28:46;16.20;76.70
71978;DHT22;59848;48.158;11.512;2022-09-09T04:31:20;16.20;76.70
71978;DHT22;59848;48.158;11.512;2022-09-09T04:33:49;16.10;76.70
71978;DHT22;59848;48.158;11.512;2022-09-09T04:36:15;16.00;76.60
71978;DHT22;59848;48.158;11.512;2022-09-09T04:38:41;15.90;76.80
71978;DHT22;59848;48.158;11.512;2022-09-09T04:41:07;15.70;76.80
71978;DHT22;59848;48.158;11.512;2022-09-09T04:43:33;15.70;77.50
71978;DHT22;59848;48.158;11.512;2022-09-09T04:45:58;15.60;78.00
71978;DHT22;59848;48.158;11.512;2022-09-09T04:48:24;15.50;78.60
71978;DHT22;59848;48.158;11.512;2022-09-09T04:51:07;15.50;78.50
71978;DHT22;59848;48.158;11.512;2022-09-09T04:53:34;15.40;78.90
71978;DHT22;59848;48.158;11.512;2022-09-09T04:56:15;15.40;79.00
71978;DHT22;59848;48.158;11.512;2022-09-09T04:58:41;15.30;79.20
71978;DHT22;59848;48.158;11.512;2022-09-09T05:01:13;15.20;79.40
71978;DHT22;59848;48.158;11.512;2022-09-09T05:03:39;15.30;79.50
71978;DHT22;59848;48.158;11.512;2022-09-09T05:06:06;15.30;79.60
71978;DHT22;59848;48.158;11.512;2022-09-09T05:08:33;15.20;79.60
71978;DHT22;59848;48.158;11.512;2022-09-09T05:10:59;15.30;79.60
71978;DHT22;59848;48.158;11.512;2022-09-09T05:13:28;15.30;79.10
71978;DHT22;59848;48.158;11.512;2022-09-09T05:15:54;15.30;79.10
71978;DHT22;59848;48.158;11.512;2022-09-09T05:18:20;15.30;79.50
71978;DHT22;59848;48.158;11.512;2022-09-09T05:20:48;15.30;79.70
71978;DHT22;59848;48.158;11.512;2022-09-09T05:23:14;15.30;80.00
71978;DHT22;59848;48.158;11.512;2022-09-09T05:25:40;15.40;79.90
71978;DHT22;59848;48.158;11.512;2022-09-09T05:28:05;15.40;79.70
71978;DHT22;59848;48.158;11.512;2022-09-09T05:30:33;15.50;79.80
71978;DHT22;59848;48.158;11.512;2022-09-09T05:32:59;15.50;79.80
71978;DHT22;59848;48.158;11.512;2022-09-09T05:35:24;15.60;79.90
71978;DHT22;59848;48.158;11.512;2022-09-09T05:37:50;15.70;79.70
71978;DHT22;59848;48.158;11.512;2022-09-09T05:40:15;15.80;79.00
71978;DHT22;59848;48.158;11.512;2022-09-09T05:42:41;16.00;78.10
71978;DHT22;59848;48.158;11.512;2022-09-09T05:45:08;16.10;77.60
71978;DHT22;59848;48.158;11.512;2022-09-09T05:47:35;16.20;77.40
71978;DHT22;59848;48.158;11.512;2022-09-09T05:50:02;16.20;76.80
71978;DHT22;59848;48.158;11.512;2022-09-09T05:52:28;16.30;76.60
71978;DHT22;59848;48.158;11.512;2022-09-09T05:54:54;16.30;76.10
71978;DHT22;59848;48.158;11.512;2022-09-09T05:57:21;16.40;76.00
71978;DHT22;59848;48.158;11.512;2022-09-09T05:59:47;16.50;75.80
71978;DHT22;59848;48.158;11.512;2022-09-09T06:02:12;16.70;75.40
71978;DHT22;59848;48.158;11.512;2022-09-09T06:04:38;16.70;75.00
71978;DHT22;59848;48.158;11.512;2022-09-09T06:07:05;16.80;74.10
71978;DHT22;59848;48.158;11.512;2022-09-09T06:09:31;17.00;74.00
71978;DHT22;59848;48.158;11.512;2022-09-09T06:11:56;17.10;73.60
71978;DHT22;59848;48.158;11.512;2022-09-09T06:14:23;17.10;73.40
71978;DHT22;59848;48.158;11.512;2022-09-09T06:16:49;17.20;73.30
71978;DHT22;59848;48.158;11.512;2022-09-09T06:19:15;17.20;73.10
71978;DHT22;59848;48.158;11.512;2022-09-09T06:21:40;17.20;72.70
71978;DHT22;59848;48.158;11.512;2022-09-09T06:24:06;17.30;72.80
71978;DHT22;59848;48.158;11.512;2022-09-09T06:26:38;17.30;72.40
71978;DHT22;59848;48.158;11.512;2022-09-09T06:29:05;17.40;71.90
71978;DHT22;59848;48.158;11.512;2022-09-09T06:31:33;17.50;71.70
71978;DHT22;59848;48.158;11.512;2022-09-09T06:34:00;17.60;71.40
71978;DHT22;59848;48.158;11.512;2022-09-09T06:36:32;17.60;71.10
71978;DHT22;59848;48.158;11.512;2022-09-09T06:38:58;17.70;71.10
71978;DHT22;59848;48.158;11.512;2022-09-09T06:41:29;17.70;70.90
71978;DHT22;59848;48.158;11.512;2022-09-09T06:43:55;17.70;70.80
71978;DHT22;59848;48.158;11.512;2022-09-09T06:46:25;17.80;70.50
71978;DHT22;59848;48.158;11.512;2022-09-09T06:48:54;17.90;70.10
71978;DHT22;59848;48.158;11.512;2022-09-09T06:51:30;17.90;69.80
71978;DHT22;59848;48.158;11.512;2022-09-09T06:53:58;18.10;69.60
71978;DHT22;59848;48.158;11.512;2022-09-09T06:58:58;18.30;69.00
71978;DHT22;59848;48.158;11.512;2022-09-09T07:01:33;18.30;68.60
71978;DHT22;59848;48.158;11.512;2022-09-09T07:04:00;18.30;68.60
71978;DHT22;59848;48.158;11.512;2022-09-09T07:06:31;18.30;68.70
71978;DHT22;59848;48.158;11.512;2022-09-09T07:09:05;18.20;68.60
71978;DHT22;59848;48.158;11.512;2022-09-09T07:11:34;17.80;70.70
71978;DHT22;59848;48.158;11.512;2022-09-09T07:14:00;18.00;71.00
71978;DHT22;59848;48.158;11.512;2022-09-09T07:16:27;17.80;71.70
71978;DHT22;59848;48.158;11.512;2022-09-09T07:18:53;17.60;73.00
71978;DHT22;59848;48.158;11.512;2022-09-09T07:21:24;17.60;73.30
71978;DHT22;59848;48.158;11.512;2022-09-09T07:23:51;17.70;72.60
71978;DHT22;59848;48.158;11.512;2022-09-09T07:26:20;17.90;73.10
71978;DHT22;59848;48.158;11.512;2022-09-09T07:28:47;18.10;72.80
71978;DHT22;59848;48.158;11.512;2022-09-09T07:31:18;18.20;72.20
71978;DHT22;59848;48.158;11.512;2022-09-09T07:33:45;18.50;71.60
71978;DHT22;59848;48.158;11.512;2022-09-09T07:36:20;18.70;71.00
71978;DHT22;59848;48.158;11.512;2022-09-09T07:38:51;18.80;70.60
71978;DHT22;59848;48.158;11.512;2022-09-09T07:41:21;18.90;70.00
71978;DHT22;59848;48.158;11.512;2022-09-09T07:43:49;18.70;70.20
71978;DHT22;59848;48.158;11.512;2022-09-09T07:46:17;18.80;70.50
71978;DHT22;59848;48.158;11.512;2022-09-09T07:48:49;18.90;70.60
71978;DHT22;59848;48.158;11.512;2022-09-09T07:51:20;19.00;69.90
71978;DHT22;59848;48.158;11.512;2022-09-09T07:53:48;19.00;68.30
71978;DHT22;59848;48.158;11.512;2022-09-09T07:56:17;18.80;70.00
71978;DHT22;59848;48.158;11.512;2022-09-09T07:58:45;19.20;68.80
71978;DHT22;59848;48.158;11.512;2022-09-09T08:01:17;19.10;68.70
71978;DHT22;59848;48.158;11.512;2022-09-09T08:03:44;19.10;68.80
71978;DHT22;59848;48.158;11.512;2022-09-09T08:06:11;19.70;66.70
71978;DHT22;59848;48.158;11.512;2022-09-09T08:08:38;19.90;66.20
71978;DHT22;59848;48.158;11.512;2022-09-09T08:11:12;19.40;67.70
71978;DHT22;59848;48.158;11.512;2022-09-09T08:13:40;19.20;68.80
71978;DHT22;59848;48.158;11.512;2022-09-09T08:16:18;19.30;68.80
71978;DHT22;59848;48.158;11.512;2022-09-09T08:18:44;19.70;68.20
71978;DHT22;59848;48.158;11.512;2022-09-09T08:21:15;20.00;67.90
71978;DHT22;59848;48.158;11.512;2022-09-09T08:23:44;20.20;67.60
71978;DHT22;59848;48.158;11.512;2022-09-09T08:26:20;20.10;68.50
71978;DHT22;59848;48.158;11.512;2022-09-09T08:28:50;20.20;69.00
71978;DHT22;59848;48.158;11.512;2022-09-09T08:31:32;20.20;68.80
71978;DHT22;59848;48.158;11.512;2022-09-09T08:33:58;20.30;69.90
71978;DHT22;59848;48.158;11.512;2022-09-09T08:36:27;20.10;69.40
71978;DHT22;59848;48.158;11.512;2022-09-09T08:38:55;20.00;70.90
71978;DHT22;59848;48.158;11.512;2022-09-09T08:47:11;19.50;74.40
71978;DHT22;59848;48.158;11.512;2022-09-09T08:52:53;19.40;76.20
71978;DHT22;59848;48.158;11.512;2022-09-09T08:55:47;19.40;75.80
71978;DHT22;59848;48.158;11.512;2022-09-09T08:58:27;19.50;76.90
71978;DHT22;59848;48.158;11.512;2022-09-09T09:03:33;19.70;75.80
71978;DHT22;59848;48.158;11.512;2022-09-09T09:11:59;20.00;74.90
71978;DHT22;59848;48.158;11.512;2022-09-09T09:14:29;20.20;73.90
71978;DHT22;59848;48.158;11.512;2022-09-09T09:16:59;19.90;67.20
71978;DHT22;59848;48.158;11.512;2022-09-09T09:19:26;20.10;70.30
71978;DHT22;59848;48.158;11.512;2022-09-09T09:22:06;19.90;68.60
71978;DHT22;59848;48.158;11.512;2022-09-09T09:30:04;20.40;67.60
71978;DHT22;59848;48.158;11.512;2022-09-09T09:32:33;20.50;64.10
71978;DHT22;59848;48.158;11.512;2022-09-09T09:35:02;20.70;66.30
71978;DHT22;59848;48.158;11.512;2022-09-09T09:37:34;20.80;66.90
71978;DHT22;59848;48.158;11.512;2022-09-09T09:40:13;20.80;65.90
71978;DHT22;59848;48.158;11.512;2022-09-09T09:42:59;20.70;63.40
71978;DHT22;59848;48.158;11.512;2022-09-09T09:45:44;20.60;62.80
71978;DHT22;59848;48.158;11.512;2022-09-09T09:48:14;20.50;63.30
71978;DHT22;59848;48.158;11.512;2022-09-09T09:51:01;20.20;63.40
71978;DHT22;59848;48.158;11.512;2022-09-09T09:53:33;20.20;65.30
71978;DHT22;59848;48.158;11.512;2022-09-09T09:56:02;20.20;64.60
71978;DHT22;59848;48.158;11.512;2022-09-09T09:58:48;20.10;66.20
71978;DHT22;59848;48.158;11.512;2022-09-09T10:01:27;19.90;65.20
71978;DHT22;59848;48.158;11.512;2022-09-09T10:03:59;19.70;67.40
71978;DHT22;59848;48.158;11.512;2022-09-09T10:06:36;19.70;67.10
71978;DHT22;59848;48.158;11.512;2022-09-09T10:09:22;19.60;67.70
71978;DHT22;59848;48.158;11.512;2022-09-09T10:12:03;19.60;68.90
71978;DHT22;59848;48.158;11.512;2022-09-09T10:14:38;19.60;68.70
71978;DHT22;59848;48.158;11.512;2022-09-09T10:20:39;19.80;68.60
71978;DHT22;59848;48.158;11.512;2022-09-09T10:29:01;20.70;67.40
71978;DHT22;59848;48.158;11.512;2022-09-09T10:31:49;20.80;65.50
71978;DHT22;59848;48.158;11.512;2022-09-09T10:40:02;21.40;62.80
71978;DHT22;59848;48.158;11.512;2022-09-09T10:42:31;21.70;63.20
71978;DHT22;59848;48.158;11.512;2022-09-09T10:45:20;21.80;62.00
71978;DHT22;59848;48.158;11.512;2022-09-09T10:47:58;22.00;60.80
71978;DHT22;59848;48.158;11.512;2022-09-09T10:53:36;22.10;61.10
71978;DHT22;59848;48.158;11.512;2022-09-09T10:56:09;22.20;60.90
71978;DHT22;59848;48.158;11.512;2022-09-09T10:58:49;22.20;59.50
71978;DHT22;59848;48.158;11.512;2022-09-09T11:01:25;22.30;60.10
71978;DHT22;59848;48.158;11.512;2022-09-09T11:03:56;22.70;59.80
71978;DHT22;59848;48.158;11.512;2022-09-09T11:06:29;23.00;56.50
71978;DHT22;59848;48.158;11.512;2022-09-09T11:08:57;22.70;56.90
71978;DHT22;59848;48.158;11.512;2022-09-09T11:11:36;23.30;56.00
71978;DHT22;59848;48.158;11.512;2022-09-09T11:14:24;23.40;53.90
71978;DHT22;59848;48.158;11.512;2022-09-09T11:17:04;23.40;53.80
71978;DHT22;59848;48.158;11.512;2022-09-09T11:19:39;24.10;52.90
71978;DHT22;59848;48.158;11.512;2022-09-09T11:27:22;24.40;51.00
71978;DHT22;59848;48.158;11.512;2022-09-09T11:30:15;24.30;50.10
71978;DHT22;59848;48.158;11.512;2022-09-09T11:38:23;25.20;47.80
71978;DHT22;59848;48.158;11.512;2022-09-09T11:41:01;25.20;47.90
71978;DHT22;59848;48.158;11.512;2022-09-09T11:43:31;25.60;46.90
71978;DHT22;59848;48.158;11.512;2022-09-09T11:46:00;25.70;47.60
71978;DHT22;59848;48.158;11.512;2022-09-09T11:48:42;25.30;47.90
71978;DHT22;59848;48.158;11.512;2022-09-09T11:51:24;25.30;46.90
71978;DHT22;59848;48.158;11.512;2022-09-09T11:56:31;24.40;48.80
71978;DHT22;59848;48.158;11.512;2022-09-09T11:59:05;23.70;49.80
71978;DHT22;59848;48.158;11.512;2022-09-09T12:01:58;23.50;51.30
71978;DHT22;59848;48.158;11.512;2022-09-09T12:17:54;24.10;51.00
71978;DHT22;59848;48.158;11.512;2022-09-09T12:20:24;24.40;51.00
71978;DHT22;59848;48.158;11.512;2022-09-09T12:31:41;24.20;50.40
71978;DHT22;59848;48.158;11.512;2022-09-09T12:34:46;24.20;50.10
71978;DHT22;59848;48.158;11.512;2022-09-09T12:37:17;24.50;50.40
71978;DHT22;59848;48.158;11.512;2022-09-09T12:40:20;24.80;50.60
71978;DHT22;59848;48.158;11.512;2022-09-09T12:42:47;24.40;50.40
71978;DHT22;59848;48.158;11.512;2022-09-09T12:45:32;25.10;49.00
71978;DHT22;59848;48.158;11.512;2022-09-09T12:48:07;25.20;48.90
71978;DHT22;59848;48.158;11.512;2022-09-09T12:50:37;25.30;48.50
71978;DHT22;59848;48.158;11.512;2022-09-09T12:53:23;24.80;48.60
71978;DHT22;59848;48.158;11.512;2022-09-09T12:55:57;24.60;49.80
71978;DHT22;59848;48.158;11.512;2022-09-09T12:58:23;24.60;49.70
71978;DHT22;59848;48.158;11.512;2022-09-09T13:00:52;24.70;49.60
71978;DHT22;59848;48.158;11.512;2022-09-09T13:03:20;24.70;50.30
71978;DHT22;59848;48.158;11.512;2022-09-09T13:05:48;24.60;49.60
71978;DHT22;59848;48.158;11.512;2022-09-09T13:08:33;24.40;49.30
71978;DHT22;59848;48.158;11.512;2022-09-09T13:11:03;24.30;48.80
71978;DHT22;59848;48.158;11.512;2022-09-09T13:13:36;24.70;49.20
71978;DHT22;59848;48.158;11.512;2022-09-09T13:16:04;24.70;50.10
71978;DHT22;59848;48.158;11.512;2022-09-09T13:18:34;24.90;49.70
71978;DHT22;59848;48.158;11.512;2022-09-09T13:21:00;24.00;50.80
71978;DHT22;59848;48.158;11.512;2022-09-09T13:23:33;24.30;50.90
71978;DHT22;59848;48.158;11.512;2022-09-09T13:26:24;24.80;49.20
71978;DHT22;59848;48.158;11.512;2022-09-09T13:29:15;25.30;48.80
71978;DHT22;59848;48.158;11.512;2022-09-09T13:31:43;25.50;48.60
71978;DHT22;59848;48.158;11.512;2022-09-09T13:36:59;25.70;47.10
71978;DHT22;59848;48.158;11.512;2022-09-09T13:39:26;25.50;47.80
71978;DHT22;59848;48.158;11.512;2022-09-09T13:41:52;25.50;47.20
71978;DHT22;59848;48.158;11.512;2022-09-09T13:44:26;25.20;47.10
71978;DHT22;59848;48.158;11.512;2022-09-09T13:47:05;25.20;47.90
71978;DHT22;59848;48.158;11.512;2022-09-09T13:49:31;24.70;48.90
71978;DHT22;59848;48.158;11.512;2022-09-09T13:52:09;24.30;49.00
71978;DHT22;59848;48.158;11.512;2022-09-09T13:54:35;24.00;49.70
71978;DHT22;59848;48.158;11.512;2022-09-09T13:57:01;23.90;50.70
71978;DHT22;59848;48.158;11.512;2022-09-09T13:59:27;23.70;51.00
71978;DHT22;59848;48.158;11.512;2022-09-09T14:01:52;23.70;51.40
71978;DHT22;59848;48.158;11.512;2022-09-09T14:04:19;23.70;51.30
71978;DHT22;59848;48.158;11.512;2022-09-09T14:06:47;23.50;51.30
71978;DHT22;59848;48.158;11.512;2022-09-09T14:09:16;23.00;52.80
71978;DHT22;59848;48.158;11.512;2022-09-09T14:11:42;22.70;53.90
71978;DHT22;59848;48.158;11.512;2022-09-09T14:14:08;22.80;53.80
71978;DHT22;59848;48.158;11.512;2022-09-09T14:16:34;22.70;54.10
71978;DHT22;59848;48.158;11.512;2022-09-09T14:19:00;23.00;53.90
71978;DHT22;59848;48.158;11.512;2022-09-09T14:21:27;23.20;53.40
71978;DHT22;59848;48.158;11.512;2022-09-09T14:23:53;23.20;54.20
71978;DHT22;59848;48.158;11.512;2022-09-09T14:26:20;22.50;53.80
71978;DHT22;59848;48.158;11.512;2022-09-09T14:28:47;22.70;54.10
71978;DHT22;59848;48.158;11.512;2022-09-09T14:31:13;22.70;54.10
71978;DHT22;59848;48.158;11.512;2022-09-09T14:33:43;22.90;53.80
71978;DHT22;59848;48.158;11.512;2022-09-09T14:36:08;22.80;53.50
71978;DHT22;59848;48.158;11.512;2022-09-09T14:38:36;22.70;54.80
71978;DHT22;59848;48.158;11.512;2022-09-09T14:41:08;22.70;54.40
71978;DHT22;59848;48.158;11.512;2022-09-09T14:43:35;22.60;54.50
71978;DHT22;59848;48.158;11.512;2022-09-09T14:46:16;22.40;54.50
71978;DHT22;59848;48.158;11.512;2022-09-09T14:48:42;22.20;54.70
71978;DHT22;59848;48.158;11.512;2022-09-09T14:51:11;22.20;55.20
71978;DHT22;59848;48.158;11.512;2022-09-09T14:53:39;22.20;54.80
71978;DHT22;59848;48.158;11.512;2022-09-09T14:56:26;22.20;54.80
71978;DHT22;59848;48.158;11.512;2022-09-09T14:58:55;21.80;55.10
71978;DHT22;59848;48.158;11.512;2022-09-09T15:01:22;21.70;55.40
71978;DHT22;59848;48.158;11.512;2022-09-09T15:03:56;21.60;55.90
71978;DHT22;59848;48.158;11.512;2022-09-09T15:06:24;21.80;55.90
71978;DHT22;59848;48.158;11.512;2022-09-09T15:08:51;21.50;55.60
71978;DHT22;59848;48.158;11.512;2022-09-09T15:11:18;21.70;55.00
71978;DHT22;59848;48.158;11.512;2022-09-09T15:13:44;21.80;54.40
71978;DHT22;59848;48.158;11.512;2022-09-09T15:16:12;22.20;54.00
71978;DHT22;59848;48.158;11.512;2022-09-09T15:18:38;22.80;51.90
71978;DHT22;59848;48.158;11.512;2022-09-09T15:21:15;23.20;50.20
71978;DHT22;59848;48.158;11.512;2022-09-09T15:23:41;22.80;50.70
71978;DHT22;59848;48.158;11.512;2022-09-09T15:26:08;23.00;51.90
71978;DHT22;59848;48.158;11.512;2022-09-09T15:28:35;23.20;51.30
71978;DHT22;59848;48.158;11.512;2022-09-09T15:31:15;23.10;50.60
71978;DHT22;59848;48.158;11.512;2022-09-09T15:33:51;23.30;51.40
71978;DHT22;59848;48.158;11.512;2022-09-09T15:36:25;24.00;49.90
71978;DHT22;59848;48.158;11.512;2022-09-09T15:38:52;24.70;47.10
71978;DHT22;59848;48.158;11.512;2022-09-09T15:41:19;25.10;46.90
71978;DHT22;59848;48.158;11.512;2022-09-09T15:43:46;26.30;44.10
71978;DHT22;59848;48.158;11.512;2022-09-09T15:46:33;27.20;41.30
71978;DHT22;59848;48.158;11.512;2022-09-09T15:49:11;28.20;39.20
71978;DHT22;59848;48.158;11.512;2022-09-09T15:51:38;28.20;39.20
71978;DHT22;59848;48.158;11.512;2022-09-09T15:54:05;26.70;41.10
71978;DHT22;59848;48.158;11.512;2022-09-09T15:56:31;25.60;43.30
71978;DHT22;59848;48.158;11.512;2022-09-09T15:58:59;24.70;45.40
71978;DHT22;59848;48.158;11.512;2022-09-09T16:01:26;24.10;46.20
71978;DHT22;59848;48.158;11.512;2022-09-09T16:03:52;23.60;47.80
71978;DHT22;59848;48.158;11.512;2022-09-09T16:06:20;23.20;48.60
71978;DHT22;59848;48.158;11.512;2022-09-09T16:08:49;22.50;50.40
71978;DHT22;59848;48.158;11.512;2022-09-09T16:11:23;22.30;51.00
71978;DHT22;59848;48.158;11.512;2022-09-09T16:13:50;22.80;50.10
71978;DHT22;59848;48.158;11.512;2022-09-09T16:16:19;24.70;46.80
71978;DHT22;59848;48.158;11.512;2022-09-09T16:18:51;26.20;43.50
71978;DHT22;59848;48.158;11.512;2022-09-09T16:21:20;27.50;40.50
71978;DHT22;59848;48.158;11.512;2022-09-09T16:23:47;28.50;38.00
71978;DHT22;59848;48.158;11.512;2022-09-09T16:26:15;29.40;36.00
71978;DHT22;59848;48.158;11.512;2022-09-09T16:28:41;29.70;35.50
71978;DHT22;59848;48.158;11.512;2022-09-09T16:31:08;30.10;34.10
71978;DHT22;59848;48.158;11.512;2022-09-09T16:33:35;29.90;34.00
71978;DHT22;59848;48.158;11.512;2022-09-09T16:36:12;29.80;34.40
71978;DHT22;59848;48.158;11.512;2022-09-09T16:38:39;29.90;34.10
71978;DHT22;59848;48.158;11.512;2022-09-09T16:41:06;30.10;33.70
71978;DHT22;59848;48.158;11.512;2022-09-09T16:43:33;29.80;34.30
71978;DHT22;59848;48.158;11.512;2022-09-09T16:45:59;29.90;33.70
71978;DHT22;59848;48.158;11.512;2022-09-09T16:48:32;29.30;34.80
71978;DHT22;59848;48.158;11.512;2022-09-09T16:51:05;28.40;36.20
71978;DHT22;59848;48.158;11.512;2022-09-09T16:53:32;28.20;36.50
71978;DHT22;59848;48.158;11.512;2022-09-09T16:56:06;28.30;36.40
71978;DHT22;59848;48.158;11.512;2022-09-09T16:58:32;27.90;37.00
71978;DHT22;59848;48.158;11.512;2022-09-09T17:00:59;26.30;40.00
71978;DHT22;59848;48.158;11.512;2022-09-09T17:03:25;25.00;42.30
71978;DHT22;59848;48.158;11.512;2022-09-09T17:05:51;24.10;45.00
71978;DHT22;59848;48.158;11.512;2022-09-09T17:08:16;23.10;46.90
71978;DHT22;59848;48.158;11.512;2022-09-09T17:10:42;22.30;49.30
71978;DHT22;59848;48.158;11.512;2022-09-09T17:13:08;21.60;51.20
71978;DHT22;59848;48.158;11.512;2022-09-09T17:15:39;21.10;52.80
71978;DHT22;59848;48.158;11.512;2022-09-09T17:18:06;20.70;54.50
71978;DHT22;59848;48.158;11.512;2022-09-09T17:20:38;20.40;55.90
71978;DHT22;59848;48.158;11.512;2022-09-09T17:23:05;20.00;57.40
71978;DHT22;59848;48.158;11.512;2022-09-09T17:25:31;19.80;58.50
71978;DHT22;59848;48.158;11.512;2022-09-09T17:27:56;19.60;59.40
71978;DHT22;59848;48.158;11.512;2022-09-09T17:30:23;19.30;60.70
71978;DHT22;59848;48.158;11.512;2022-09-09T17:32:49;19.20;60.90
71978;DHT22;59848;48.158;11.512;2022-09-09T17:35:15;19.20;61.50
71978;DHT22;59848;48.158;11.512;2022-09-09T17:37:40;18.90;62.30